sensor_id;sensor_type;location;lat;lon;timestamp;pressure;altitude;pressure_sealevel;temperature;humidity
55994;BME280;67425;52.126;20.638;2023-04-04T00:02:05;57603.56;;;-144.78;44.17
55994;BME280;67425;52.126;20.638;2023-04-04T00:04:32;57620.19;;;-144.78;44.31
55994;BME280;67425;52.126;20.638;2023-04-04T00:06:57;57630.56;;;-144.78;43.82
55994;BME280;67425;52.126;20.638;2023-04-04T00:09:23;57624.34;;;-144.78;43.92
55994;BME280;67425;52.126;20.638;2023-04-04T00:11:48;57620.19;;;-144.78;43.82
55994;BME280;67425;52.126;20.638;2023-04-04T00:14:14;57616.03;;;-144.78;44.12
55994;BME280;67425;52.126;20.638;2023-04-04T00:16:40;57607.72;;;-144.78;43.91
55994;BME280;67425;52.126;20.638;2023-04-04T00:19:05;57632.66;;;-144.78;45.23
55994;BME280;67425;52.126;20.638;2023-04-04T00:21:31;57613.94;;;-144.78;44.46
55994;BME280;67425;52.126;20.638;2023-04-04T00:23:56;57597.34;;;-144.78;43.58
55994;BME280;67425;52.126;20.638;2023-04-04T00:26:23;57593.19;;;-144.78;43.06
55994;BME280;67425;52.126;20.638;2023-04-04T00:28:48;57649.25;;;-144.78;44.72
55994;BME280;67425;52.126;20.638;2023-04-04T00:31:14;57628.50;;;-144.78;44.67
55994;BME280;67425;52.126;20.638;2023-04-04T00:33:40;57607.72;;;-144.78;43.87
55994;BME280;67425;52.126;20.638;2023-04-04T00:36:05;57616.03;;;-144.78;44.63
55994;BME280;67425;52.126;20.638;2023-04-04T00:38:31;57609.78;;;-144.78;44.57
55994;BME280;67425;52.126;20.638;2023-04-04T00:40:56;57611.88;;;-144.78;43.87
55994;BME280;67425;52.126;20.638;2023-04-04T00:43:22;57589.03;;;-144.78;43.58
55994;BME280;67425;52.126;20.638;2023-04-04T00:45:48;57586.94;;;-144.78;43.85
55994;BME280;67425;52.126;20.638;2023-04-04T00:48:15;57618.09;;;-144.78;43.77
55994;BME280;67425;52.126;20.638;2023-04-04T00:50:41;57651.34;;;-144.78;45.13
55994;BME280;67425;52.126;20.638;2023-04-04T00:53:06;57613.94;;;-144.78;43.62
55994;BME280;67425;52.126;20.638;2023-04-04T00:55:32;57589.03;;;-144.78;44.17
55994;BME280;67425;52.126;20.638;2023-04-04T00:57:58;57622.25;;;-144.78;42.84
55994;BME280;67425;52.126;20.638;2023-04-04T01:00:25;57618.09;;;-144.78;44.20
55994;BME280;67425;52.126;20.638;2023-04-04T01:02:50;57586.94;;;-144.78;43.16
55994;BME280;67425;52.126;20.638;2023-04-04T01:05:16;57613.94;;;-144.78;43.15
55994;BME280;67425;52.126;20.638;2023-04-04T01:07:41;57630.56;;;-144.78;44.34
55994;BME280;67425;52.126;20.638;2023-04-04T01:10:07;57638.88;;;-144.78;44.54
55994;BME280;67425;52.126;20.638;2023-04-04T01:12:33;57624.34;;;-144.78;43.73
55994;BME280;67425;52.126;20.638;2023-04-04T01:14:59;57582.81;;;-144.78;43.39
55994;BME280;67425;52.126;20.638;2023-04-04T01:17:25;57580.72;;;-144.78;42.67
55994;BME280;67425;52.126;20.638;2023-04-04T01:20:08;57553.72;;;-144.78;41.41
55994;BME280;67425;52.126;20.638;2023-04-04T01:22:36;57535.03;;;-144.78;41.63
55994;BME280;67425;52.126;20.638;2023-04-04T01:25:04;57580.72;;;-144.78;42.59
55994;BME280;67425;52.126;20.638;2023-04-04T01:27:30;57599.41;;;-144.78;42.83
55994;BME280;67425;52.126;20.638;2023-04-04T01:29:55;57576.56;;;-144.78;42.85
55994;BME280;67425;52.126;20.638;2023-04-04T01:35:32;57634.72;;;-144.78;44.19
55994;BME280;67425;52.126;20.638;2023-04-04T01:38:29;57632.66;;;-144.78;44.71
55994;BME280;67425;52.126;20.638;2023-04-04T01:41:06;57626.41;;;-144.78;44.86
55994;BME280;67425;52.126;20.638;2023-04-04T01:43:32;57632.66;;;-144.78;44.54
55994;BME280;67425;52.126;20.638;2023-04-04T01:45:58;57607.72;;;-144.78;45.10
55994;BME280;67425;52.126;20.638;2023-04-04T01:48:23;57603.56;;;-144.78;43.55
55994;BME280;67425;52.126;20.638;2023-04-04T01:50:49;57607.72;;;-144.78;43.78
55994;BME280;67425;52.126;20.638;2023-04-04T01:53:14;57607.72;;;-144.78;44.53
55994;BME280;67425;52.126;20.638;2023-04-04T01:55:40;57638.88;;;-144.78;44.92
55994;BME280;67425;52.126;20.638;2023-04-04T01:58:05;57593.19;;;-144.78;44.51
55994;BME280;67425;52.126;20.638;2023-04-04T02:00:30;57622.25;;;-144.78;46.56
55994;BME280;67425;52.126;20.638;2023-04-04T02:02:55;57632.66;;;-144.78;45.88
55994;BME280;67425;52.126;20.638;2023-04-04T02:05:21;57622.25;;;-144.78;44.92
55994;BME280;67425;52.126;20.638;2023-04-04T02:07:47;57653.41;;;-144.78;45.96
55994;BME280;67425;52.126;20.638;2023-04-04T02:10:14;57634.72;;;-144.78;46.13
55994;BME280;67425;52.126;20.638;2023-04-04T02:12:40;57688.72;;;-144.78;46.10
55994;BME280;67425;52.126;20.638;2023-04-04T02:15:05;57622.25;;;-144.78;45.08
55994;BME280;67425;52.126;20.638;2023-04-04T02:17:31;57613.94;;;-144.78;44.80
55994;BME280;67425;52.126;20.638;2023-04-04T02:19:56;57609.78;;;-144.78;43.88
55994;BME280;67425;52.126;20.638;2023-04-04T02:22:22;57605.66;;;-144.78;44.11
55994;BME280;67425;52.126;20.638;2023-04-04T02:24:47;57624.34;;;-144.78;45.86
55994;BME280;67425;52.126;20.638;2023-04-04T02:27:12;57601.50;;;-144.78;44.30
55994;BME280;67425;52.126;20.638;2023-04-04T02:29:38;57613.94;;;-144.78;43.92
55994;BME280;67425;52.126;20.638;2023-04-04T02:32:03;57591.09;;;-144.78;42.71
55994;BME280;67425;52.126;20.638;2023-04-04T02:34:28;57578.66;;;-144.78;42.41
55994;BME280;67425;52.126;20.638;2023-04-04T02:36:54;57589.03;;;-144.78;42.94
55994;BME280;67425;52.126;20.638;2023-04-04T02:39:19;57589.03;;;-144.78;42.88
55994;BME280;67425;52.126;20.638;2023-04-04T02:41:44;57578.66;;;-144.78;42.85
55994;BME280;67425;52.126;20.638;2023-04-04T02:44:10;57578.66;;;-144.78;42.42
55994;BME280;67425;52.126;20.638;2023-04-04T02:46:36;57568.25;;;-144.78;42.98
55994;BME280;67425;52.126;20.638;2023-04-04T02:49:01;57591.09;;;-144.78;43.86
55994;BME280;67425;52.126;20.638;2023-04-04T02:51:27;57622.25;;;-144.78;43.60
55994;BME280;67425;52.126;20.638;2023-04-04T02:53:53;57568.25;;;-144.78;42.79
55994;BME280;67425;52.126;20.638;2023-04-04T02:56:18;57595.25;;;-144.78;42.90
55994;BME280;67425;52.126;20.638;2023-04-04T02:58:43;57580.72;;;-144.78;42.86
55994;BME280;67425;52.126;20.638;2023-04-04T03:01:09;57543.34;;;-144.78;41.22
55994;BME280;67425;52.126;20.638;2023-04-04T03:03:34;57572.41;;;-144.78;41.69
55994;BME280;67425;52.126;20.638;2023-04-04T03:06:00;57537.09;;;-144.78;40.46
55994;BME280;67425;52.126;20.638;2023-04-04T03:08:26;57555.81;;;-144.78;41.29
55994;BME280;67425;52.126;20.638;2023-04-04T03:10:52;57557.88;;;-144.78;41.14
55994;BME280;67425;52.126;20.638;2023-04-04T03:13:17;57572.41;;;-144.78;41.28
55994;BME280;67425;52.126;20.638;2023-04-04T03:15:43;57574.50;;;-144.78;41.84
55994;BME280;67425;52.126;20.638;2023-04-04T03:18:08;57574.50;;;-144.78;41.73
55994;BME280;67425;52.126;20.638;2023-04-04T03:20:34;57557.88;;;-144.78;43.13
55994;BME280;67425;52.126;20.638;2023-04-04T03:22:59;57586.94;;;-144.78;42.19
55994;BME280;67425;52.126;20.638;2023-04-04T03:25:24;57578.66;;;-144.78;41.92
55994;BME280;67425;52.126;20.638;2023-04-04T03:27:50;57601.50;;;-144.78;42.81
55994;BME280;67425;52.126;20.638;2023-04-04T03:30:15;57578.66;;;-144.78;42.46
55994;BME280;67425;52.126;20.638;2023-04-04T03:32:41;57601.50;;;-144.78;43.42
55994;BME280;67425;52.126;20.638;2023-04-04T03:35:06;57591.09;;;-144.78;42.07
55994;BME280;67425;52.126;20.638;2023-04-04T03:37:32;57572.41;;;-144.78;41.81
55994;BME280;67425;52.126;20.638;2023-04-04T03:39:58;57586.94;;;-144.78;41.24
55994;BME280;67425;52.126;20.638;2023-04-04T03:42:24;57578.66;;;-144.78;41.09
55994;BME280;67425;52.126;20.638;2023-04-04T03:44:51;57582.81;;;-144.78;41.54
55994;BME280;67425;52.126;20.638;2023-04-04T03:47:17;57605.66;;;-144.78;42.32
55994;BME280;67425;52.126;20.638;2023-04-04T03:49:42;57580.72;;;-144.78;41.52
55994;BME280;67425;52.126;20.638;2023-04-04T03:52:08;57557.88;;;-144.78;41.60
55994;BME280;67425;52.126;20.638;2023-04-04T03:54:33;57568.25;;;-144.78;40.61
55994;BME280;67425;52.126;20.638;2023-04-04T03:56:59;57549.56;;;-144.78;40.27
55994;BME280;67425;52.126;20.638;2023-04-04T03:59:24;57566.19;;;-144.78;40.39
55994;BME280;67425;52.126;20.638;2023-04-04T04:01:49;57528.81;;;-144.78;39.88
55994;BME280;67425;52.126;20.638;2023-04-04T04:04:15;57547.50;;;-144.78;39.61
55994;BME280;67425;52.126;20.638;2023-04-04T04:06:41;57589.03;;;-144.78;41.24
55994;BME280;67425;52.126;20.638;2023-04-04T04:09:06;57568.25;;;-144.78;41.12
55994;BME280;67425;52.126;20.638;2023-04-04T04:11:32;57572.41;;;-144.78;41.38
55994;BME280;67425;52.126;20.638;2023-04-04T04:13:57;57566.19;;;-144.78;40.63
55994;BME280;67425;52.126;20.638;2023-04-04T04:16:24;57541.25;;;-144.78;40.07
55994;BME280;67425;52.126;20.638;2023-04-04T04:18:50;57576.56;;;-144.78;40.28
55994;BME280;67425;52.126;20.638;2023-04-04T04:21:15;57555.81;;;-144.78;40.32
55994;BME280;67425;52.126;20.638;2023-04-04T04:23:40;57547.50;;;-144.78;39.96
55994;BME280;67425;52.126;20.638;2023-04-04T04:26:06;57543.34;;;-144.78;40.04
55994;BME280;67425;52.126;20.638;2023-04-04T04:28:31;57551.66;;;-144.78;39.92
55994;BME280;67425;52.126;20.638;2023-04-04T04:31:04;57555.81;;;-144.78;39.90
55994;BME280;67425;52.126;20.638;2023-04-04T04:33:30;57541.25;;;-144.78;39.50
55994;BME280;67425;52.126;20.638;2023-04-04T04:35:59;57518.41;;;-144.78;39.54
55994;BME280;67425;52.126;20.638;2023-04-04T04:38:26;57522.56;;;-144.78;40.13
55994;BME280;67425;52.126;20.638;2023-04-04T04:40:51;57549.56;;;-144.78;40.70
55994;BME280;67425;52.126;20.638;2023-04-04T04:43:16;57535.03;;;-144.78;40.69
55994;BME280;67425;52.126;20.638;2023-04-04T04:45:42;57553.72;;;-144.78;40.39
55994;BME280;67425;52.126;20.638;2023-04-04T04:48:07;57526.72;;;-144.78;40.21
55994;BME280;67425;52.126;20.638;2023-04-04T04:50:32;57522.56;;;-144.78;39.78
55994;BME280;67425;52.126;20.638;2023-04-04T04:52:58;57566.19;;;-144.78;41.61
55994;BME280;67425;52.126;20.638;2023-04-04T04:55:23;57559.97;;;-144.78;41.48
55994;BME280;67425;52.126;20.638;2023-04-04T04:57:48;57537.09;;;-144.78;40.18
55994;BME280;67425;52.126;20.638;2023-04-04T05:00:14;57543.34;;;-144.78;40.46
55994;BME280;67425;52.126;20.638;2023-04-04T05:02:41;57539.19;;;-144.78;40.80
55994;BME280;67425;52.126;20.638;2023-04-04T05:05:06;57553.72;;;-144.78;42.10
55994;BME280;67425;52.126;20.638;2023-04-04T05:07:32;57528.81;;;-144.78;41.50
55994;BME280;67425;52.126;20.638;2023-04-04T05:09:57;57566.19;;;-144.78;41.60
55994;BME280;67425;52.126;20.638;2023-04-04T05:12:22;57551.66;;;-144.78;42.09
55994;BME280;67425;52.126;20.638;2023-04-04T05:14:47;57543.34;;;-144.78;41.58
55994;BME280;67425;52.126;20.638;2023-04-04T05:17:13;57547.50;;;-144.78;41.75
55994;BME280;67425;52.126;20.638;2023-04-04T05:19:38;57532.97;;;-144.78;42.31
55994;BME280;67425;52.126;20.638;2023-04-04T05:22:05;57520.50;;;-144.78;41.23
55994;BME280;67425;52.126;20.638;2023-04-04T05:24:31;57545.41;;;-144.78;41.70
55994;BME280;67425;52.126;20.638;2023-04-04T05:26:57;57535.03;;;-144.78;40.65
55994;BME280;67425;52.126;20.638;2023-04-04T05:29:22;57593.19;;;-144.78;42.68
55994;BME280;67425;52.126;20.638;2023-04-04T05:31:47;57543.34;;;-144.78;41.64
55994;BME280;67425;52.126;20.638;2023-04-04T05:34:13;57503.88;;;-144.78;40.42
55994;BME280;67425;52.126;20.638;2023-04-04T05:36:38;57586.94;;;-144.78;43.15
55994;BME280;67425;52.126;20.638;2023-04-04T05:39:03;57562.03;;;-144.78;43.51
55994;BME280;67425;52.126;20.638;2023-04-04T05:41:29;57526.72;;;-144.78;41.34
55994;BME280;67425;52.126;20.638;2023-04-04T05:43:55;57524.66;;;-144.78;41.70
55994;BME280;67425;52.126;20.638;2023-04-04T05:46:20;57528.81;;;-144.78;40.86
55994;BME280;67425;52.126;20.638;2023-04-04T05:48:45;57510.13;;;-144.78;41.21
55994;BME280;67425;52.126;20.638;2023-04-04T05:51:11;57491.41;;;-144.78;40.17
55994;BME280;67425;52.126;20.638;2023-04-04T05:53:36;57537.09;;;-144.78;41.52
55994;BME280;67425;52.126;20.638;2023-04-04T05:56:02;57566.19;;;-144.78;40.68
55994;BME280;67425;52.126;20.638;2023-04-04T05:58:27;57545.41;;;-144.78;41.19
55994;BME280;67425;52.126;20.638;2023-04-04T06:00:53;57549.56;;;-144.78;43.70
55994;BME280;67425;52.126;20.638;2023-04-04T06:03:18;57508.03;;;-144.78;41.31
55994;BME280;67425;52.126;20.638;2023-04-04T06:05:49;57543.34;;;-144.78;42.72
55994;BME280;67425;52.126;20.638;2023-04-04T06:08:15;57526.72;;;-144.78;42.19
55994;BME280;67425;52.126;20.638;2023-04-04T06:10:40;57495.56;;;-144.78;39.89
55994;BME280;67425;52.126;20.638;2023-04-04T06:13:06;57505.97;;;-144.78;40.31
55994;BME280;67425;52.126;20.638;2023-04-04T06:15:31;57572.41;;;-144.78;41.43
55994;BME280;67425;52.126;20.638;2023-04-04T06:17:56;57562.03;;;-144.78;41.88
55994;BME280;67425;52.126;20.638;2023-04-04T06:20:22;57537.09;;;-144.78;42.11
55994;BME280;67425;52.126;20.638;2023-04-04T06:22:48;57526.72;;;-144.78;40.79
55994;BME280;67425;52.126;20.638;2023-04-04T06:25:13;57572.41;;;-144.78;42.60
55994;BME280;67425;52.126;20.638;2023-04-04T06:27:39;57589.03;;;-144.78;43.49
55994;BME280;67425;52.126;20.638;2023-04-04T06:30:05;57559.97;;;-144.78;42.21
55994;BME280;67425;52.126;20.638;2023-04-04T06:32:31;57562.03;;;-144.78;42.65
55994;BME280;67425;52.126;20.638;2023-04-04T06:34:56;57543.34;;;-144.78;41.76
55994;BME280;67425;52.126;20.638;2023-04-04T06:37:21;57522.56;;;-144.78;41.63
55994;BME280;67425;52.126;20.638;2023-04-04T06:39:47;57549.56;;;-144.78;42.47
55994;BME280;67425;52.126;20.638;2023-04-04T06:42:12;57568.25;;;-144.78;42.83
55994;BME280;67425;52.126;20.638;2023-04-04T06:44:37;57543.34;;;-144.78;41.89
55994;BME280;67425;52.126;20.638;2023-04-04T06:47:03;57532.97;;;-144.78;42.22
55994;BME280;67425;52.126;20.638;2023-04-04T06:49:28;57557.88;;;-144.78;41.89
55994;BME280;67425;52.126;20.638;2023-04-04T06:51:54;57522.56;;;-144.78;40.42
55994;BME280;67425;52.126;20.638;2023-04-04T06:54:19;57499.72;;;-144.78;39.87
55994;BME280;67425;52.126;20.638;2023-04-04T06:56:44;57487.28;;;-144.78;39.17
55994;BME280;67425;52.126;20.638;2023-04-04T06:59:10;57518.41;;;-144.78;39.83
55994;BME280;67425;52.126;20.638;2023-04-04T07:01:36;57532.97;;;-144.78;41.44
55994;BME280;67425;52.126;20.638;2023-04-04T07:04:02;57547.50;;;-144.78;41.55
55994;BME280;67425;52.126;20.638;2023-04-04T07:06:27;57547.50;;;-144.78;42.02
55994;BME280;67425;52.126;20.638;2023-04-04T07:08:54;57532.97;;;-144.78;42.00
55994;BME280;67425;52.126;20.638;2023-04-04T07:11:19;57559.97;;;-144.78;41.53
55994;BME280;67425;52.126;20.638;2023-04-04T07:13:47;57537.09;;;-144.78;40.98
55994;BME280;67425;52.126;20.638;2023-04-04T07:16:13;57501.81;;;-144.78;38.97
55994;BME280;67425;52.126;20.638;2023-04-04T07:18:38;57514.25;;;-144.78;40.22
55994;BME280;67425;52.126;20.638;2023-04-04T07:21:04;57510.13;;;-144.78;39.05
55994;BME280;67425;52.126;20.638;2023-04-04T07:23:29;57537.09;;;-144.78;40.33
55994;BME280;67425;52.126;20.638;2023-04-04T07:25:55;57526.72;;;-144.78;40.08
55994;BME280;67425;52.126;20.638;2023-04-04T07:28:20;57503.88;;;-144.78;39.29
55994;BME280;67425;52.126;20.638;2023-04-04T07:30:46;57510.13;;;-144.78;39.97
55994;BME280;67425;52.126;20.638;2023-04-04T07:33:12;57478.97;;;-144.78;38.80
55994;BME280;67425;52.126;20.638;2023-04-04T07:35:37;57518.41;;;-144.78;39.25
55994;BME280;67425;52.126;20.638;2023-04-04T07:38:02;57485.19;;;-144.78;39.23
55994;BME280;67425;52.126;20.638;2023-04-04T07:40:28;57518.41;;;-144.78;39.01
55994;BME280;67425;52.126;20.638;2023-04-04T07:42:54;57524.66;;;-144.78;39.21
55994;BME280;67425;52.126;20.638;2023-04-04T07:45:19;57526.72;;;-144.78;39.80
55994;BME280;67425;52.126;20.638;2023-04-04T07:47:46;57493.50;;;-144.78;37.82
55994;BME280;67425;52.126;20.638;2023-04-04T07:50:12;57508.03;;;-144.78;37.81
55994;BME280;67425;52.126;20.638;2023-04-04T07:52:39;57499.72;;;-144.78;37.68
55994;BME280;67425;52.126;20.638;2023-04-04T07:55:05;57532.97;;;-144.78;38.59
55994;BME280;67425;52.126;20.638;2023-04-04T07:57:32;57543.34;;;-144.78;38.69
55994;BME280;67425;52.126;20.638;2023-04-04T07:59:57;57514.25;;;-144.78;36.72
55994;BME280;67425;52.126;20.638;2023-04-04T08:02:23;57518.41;;;-144.78;37.17
55994;BME280;67425;52.126;20.638;2023-04-04T08:04:49;57516.34;;;-144.78;36.79
55994;BME280;67425;52.126;20.638;2023-04-04T08:07:14;57528.81;;;-144.78;37.41
55994;BME280;67425;52.126;20.638;2023-04-04T08:09:40;57505.97;;;-144.78;36.42
55994;BME280;67425;52.126;20.638;2023-04-04T08:12:05;57489.34;;;-144.78;36.81
55994;BME280;67425;52.126;20.638;2023-04-04T08:14:32;57514.25;;;-144.78;37.24
55994;BME280;67425;52.126;20.638;2023-04-04T08:16:57;57487.28;;;-144.78;36.66
55994;BME280;67425;52.126;20.638;2023-04-04T08:19:23;57493.50;;;-144.78;37.21
55994;BME280;67425;52.126;20.638;2023-04-04T08:21:48;57512.19;;;-144.78;36.63
55994;BME280;67425;52.126;20.638;2023-04-04T08:24:14;57503.88;;;-144.78;36.48
55994;BME280;67425;52.126;20.638;2023-04-04T08:26:39;57495.56;;;-144.78;37.11
55994;BME280;67425;52.126;20.638;2023-04-04T08:29:05;57493.50;;;-144.78;36.13
55994;BME280;67425;52.126;20.638;2023-04-04T08:31:30;57485.19;;;-144.78;36.53
55994;BME280;67425;52.126;20.638;2023-04-04T08:33:56;57462.34;;;-144.78;35.95
55994;BME280;67425;52.126;20.638;2023-04-04T08:36:21;57491.41;;;-144.78;36.04
55994;BME280;67425;52.126;20.638;2023-04-04T08:38:47;57441.59;;;-144.78;36.33
55994;BME280;67425;52.126;20.638;2023-04-04T08:41:13;57478.97;;;-144.78;35.77
55994;BME280;67425;52.126;20.638;2023-04-04T08:43:42;57476.88;;;-144.78;36.29
55994;BME280;67425;52.126;20.638;2023-04-04T08:46:10;57499.72;;;-144.78;36.51
55994;BME280;67425;52.126;20.638;2023-04-04T08:48:38;57474.81;;;-144.78;35.24
55994;BME280;67425;52.126;20.638;2023-04-04T08:51:06;57489.34;;;-144.78;36.32
55994;BME280;67425;52.126;20.638;2023-04-04T08:53:35;57437.44;;;-144.78;35.95
55994;BME280;67425;52.126;20.638;2023-04-04T08:56:01;57447.81;;;-144.78;35.12
55994;BME280;67425;52.126;20.638;2023-04-04T08:58:26;57508.03;;;-144.78;35.31
55994;BME280;67425;52.126;20.638;2023-04-04T09:00:53;57443.66;;;-144.78;34.96
55994;BME280;67425;52.126;20.638;2023-04-04T09:03:23;57429.13;;;-144.78;34.51
55994;BME280;67425;52.126;20.638;2023-04-04T09:05:50;57449.88;;;-144.78;35.58
55994;BME280;67425;52.126;20.638;2023-04-04T09:08:17;57433.28;;;-144.78;35.01
55994;BME280;67425;52.126;20.638;2023-04-04T09:10:43;57464.41;;;-144.78;34.55
55994;BME280;67425;52.126;20.638;2023-04-04T09:13:10;57501.81;;;-144.78;36.33
55994;BME280;67425;52.126;20.638;2023-04-04T09:15:37;57464.41;;;-144.78;35.26
55994;BME280;67425;52.126;20.638;2023-04-04T09:18:03;57485.19;;;-144.78;34.99
55994;BME280;67425;52.126;20.638;2023-04-04T09:20:42;57447.81;;;-144.78;35.01
55994;BME280;67425;52.126;20.638;2023-04-04T09:23:12;57445.72;;;-144.78;33.79
55994;BME280;67425;52.126;20.638;2023-04-04T09:25:48;57443.66;;;-144.78;34.41
55994;BME280;67425;52.126;20.638;2023-04-04T09:28:14;57464.41;;;-144.78;35.37
55994;BME280;67425;52.126;20.638;2023-04-04T09:30:40;57456.13;;;-144.78;33.65
55994;BME280;67425;52.126;20.638;2023-04-04T09:33:07;57464.41;;;-144.78;34.02
55994;BME280;67425;52.126;20.638;2023-04-04T09:35:38;57439.50;;;-144.78;34.51
55994;BME280;67425;52.126;20.638;2023-04-04T09:38:06;57476.88;;;-144.78;34.91
55994;BME280;67425;52.126;20.638;2023-04-04T09:40:34;57447.81;;;-144.78;33.67
55994;BME280;67425;52.126;20.638;2023-04-04T09:43:00;57478.97;;;-144.78;34.99
55994;BME280;67425;52.126;20.638;2023-04-04T09:45:29;57449.88;;;-144.78;33.38
55994;BME280;67425;52.126;20.638;2023-04-04T09:47:55;57395.88;;;-144.78;31.77
55994;BME280;67425;52.126;20.638;2023-04-04T09:50:22;57435.34;;;-144.78;32.46
55994;BME280;67425;52.126;20.638;2023-04-04T09:52:49;57395.88;;;-144.78;32.45
55994;BME280;67425;52.126;20.638;2023-04-04T09:55:14;57406.28;;;-144.78;32.00
55994;BME280;67425;52.126;20.638;2023-04-04T09:57:40;57443.66;;;-144.78;33.73
55994;BME280;67425;52.126;20.638;2023-04-04T10:00:06;57478.97;;;-144.78;32.94
55994;BME280;67425;52.126;20.638;2023-04-04T10:02:37;57468.56;;;-144.78;34.00
55994;BME280;67425;52.126;20.638;2023-04-04T10:05:03;57389.66;;;-144.78;32.15
55994;BME280;67425;52.126;20.638;2023-04-04T10:07:29;57422.88;;;-144.78;32.69
55994;BME280;67425;52.126;20.638;2023-04-04T10:09:56;57418.72;;;-144.78;32.03
55994;BME280;67425;52.126;20.638;2023-04-04T10:12:23;57416.66;;;-144.78;32.23
55994;BME280;67425;52.126;20.638;2023-04-04T10:14:59;57493.50;;;-144.78;33.53
55994;BME280;67425;52.126;20.638;2023-04-04T10:20:03;57462.34;;;-144.78;32.65
55994;BME280;67425;52.126;20.638;2023-04-04T10:22:34;57474.81;;;-144.78;32.67
55994;BME280;67425;52.126;20.638;2023-04-04T10:24:59;57433.28;;;-144.78;31.59
55994;BME280;67425;52.126;20.638;2023-04-04T10:27:25;57443.66;;;-144.78;32.25
55994;BME280;67425;52.126;20.638;2023-04-04T10:29:51;57462.34;;;-144.78;33.07
55994;BME280;67425;52.126;20.638;2023-04-04T10:32:22;57424.97;;;-144.78;32.04
55994;BME280;67425;52.126;20.638;2023-04-04T10:35:02;57505.97;;;-144.78;33.14
55994;BME280;67425;52.126;20.638;2023-04-04T10:37:31;57445.72;;;-144.78;33.36
55994;BME280;67425;52.126;20.638;2023-04-04T10:40:09;57456.13;;;-144.78;32.79
55994;BME280;67425;52.126;20.638;2023-04-04T10:42:41;57491.41;;;-144.78;32.91
55994;BME280;67425;52.126;20.638;2023-04-04T10:45:08;57510.13;;;-144.78;34.28
55994;BME280;67425;52.126;20.638;2023-04-04T10:47:36;57516.34;;;-144.78;35.18
55994;BME280;67425;52.126;20.638;2023-04-04T10:50:04;57472.72;;;-144.78;34.80
55994;BME280;67425;52.126;20.638;2023-04-04T10:52:35;57503.88;;;-144.78;33.85
55994;BME280;67425;52.126;20.638;2023-04-04T10:55:04;57489.34;;;-144.78;33.58
55994;BME280;67425;52.126;20.638;2023-04-04T10:57:39;57512.19;;;-144.78;34.31
55994;BME280;67425;52.126;20.638;2023-04-04T11:00:09;57495.56;;;-144.78;33.84
55994;BME280;67425;52.126;20.638;2023-04-04T11:03:00;57512.19;;;-144.78;34.45
55994;BME280;67425;52.126;20.638;2023-04-04T11:05:30;57514.25;;;-144.78;33.10
55994;BME280;67425;52.126;20.638;2023-04-04T11:08:03;57508.03;;;-144.78;33.46
55994;BME280;67425;52.126;20.638;2023-04-04T11:10:30;57483.13;;;-144.78;32.90
55994;BME280;67425;52.126;20.638;2023-04-04T11:12:57;57464.41;;;-144.78;32.44
55994;BME280;67425;52.126;20.638;2023-04-04T11:15:44;57505.97;;;-144.78;33.54
55994;BME280;67425;52.126;20.638;2023-04-04T11:18:09;57503.88;;;-144.78;34.96
55994;BME280;67425;52.126;20.638;2023-04-04T11:20:40;57445.72;;;-144.78;33.52
55994;BME280;67425;52.126;20.638;2023-04-04T11:23:17;57445.72;;;-144.78;33.09
55994;BME280;67425;52.126;20.638;2023-04-04T11:25:52;57476.88;;;-144.78;33.29
55994;BME280;67425;52.126;20.638;2023-04-04T11:44:17;57495.56;;;-144.78;34.49
55994;BME280;67425;52.126;20.638;2023-04-04T11:46:43;57472.72;;;-144.78;34.50
55994;BME280;67425;52.126;20.638;2023-04-04T11:49:10;57454.03;;;-144.78;33.15
55994;BME280;67425;52.126;20.638;2023-04-04T11:51:37;57447.81;;;-144.78;33.55
55994;BME280;67425;52.126;20.638;2023-04-04T11:54:03;57462.34;;;-144.78;32.94
55994;BME280;67425;52.126;20.638;2023-04-04T11:56:32;57435.34;;;-144.78;32.59
55994;BME280;67425;52.126;20.638;2023-04-04T11:59:02;57478.97;;;-144.78;32.81
55994;BME280;67425;52.126;20.638;2023-04-04T12:01:28;57416.66;;;-144.78;32.37
55994;BME280;67425;52.126;20.638;2023-04-04T12:03:54;57489.34;;;-144.78;32.87
55994;BME280;67425;52.126;20.638;2023-04-04T12:06:20;57456.13;;;-144.78;32.90
55994;BME280;67425;52.126;20.638;2023-04-04T12:08:45;57510.13;;;-144.78;34.06
55994;BME280;67425;52.126;20.638;2023-04-04T12:11:14;57470.66;;;-144.78;33.41
55994;BME280;67425;52.126;20.638;2023-04-04T12:13:42;57478.97;;;-144.78;34.23
55994;BME280;67425;52.126;20.638;2023-04-04T12:16:09;57505.97;;;-144.78;34.52
55994;BME280;67425;52.126;20.638;2023-04-04T12:18:35;57481.03;;;-144.78;34.03
55994;BME280;67425;52.126;20.638;2023-04-04T12:21:01;57501.81;;;-144.78;35.06
55994;BME280;67425;52.126;20.638;2023-04-04T12:23:27;57485.19;;;-144.78;34.02
55994;BME280;67425;52.126;20.638;2023-04-04T12:25:56;57503.88;;;-144.78;34.55
55994;BME280;67425;52.126;20.638;2023-04-04T12:28:22;57514.25;;;-144.78;35.37
55994;BME280;67425;52.126;20.638;2023-04-04T12:30:48;57439.50;;;-144.78;34.09
55994;BME280;67425;52.126;20.638;2023-04-04T12:33:14;57462.34;;;-144.78;34.32
55994;BME280;67425;52.126;20.638;2023-04-04T12:35:39;57501.81;;;-144.78;34.34
55994;BME280;67425;52.126;20.638;2023-04-04T12:38:05;57503.88;;;-144.78;35.19
55994;BME280;67425;52.126;20.638;2023-04-04T12:40:36;57493.50;;;-144.78;34.38
55994;BME280;67425;52.126;20.638;2023-04-04T12:43:04;57505.97;;;-144.78;34.44
55994;BME280;67425;52.126;20.638;2023-04-04T12:45:29;57483.13;;;-144.78;34.20
55994;BME280;67425;52.126;20.638;2023-04-04T12:47:55;57451.97;;;-144.78;33.78
55994;BME280;67425;52.126;20.638;2023-04-04T12:50:23;57462.34;;;-144.78;34.09